IQQ weather

Diego Aracena Airport
Iquique, Tarapac√° Region, Chile

Public forecast

Using degrees Celsius for public forecast. Weather courtesy of forecast.io.

Current aviation weather report (METAR) for Diego Aracena Airport

Retrieved 2020/06/02 01:00 UTC (37 minutes ago):

SCDA 020100Z 22011KT 9999 OVC017 18/15 Q1019

Aviation forecast (TAF) for Diego Aracena Airport

Retrieved 2020-06-02 00:00 UTC (2 hours ago):

TAF SCDA 012230Z 0200/0224 23010KT 9999 BKN025 TN17/0206Z TX20/0218Z BECMG 0203/0205 20004KT OVC028 BECMG 0215/0217 FEW030 BECMG 0216/0218 24015KT BECMG 0221/0223 BKN025